Date,TemperatureHighF,TemperatureAvgF,TemperatureLowF,DewpointHighF,DewpointAvgF,DewpointLowF,HumidityHigh,HumidityAvg,HumidityLow,PressureMaxIn,PressureMinIn,WindSpeedMaxMPH,WindSpeedAvgMPH,GustSpeedMaxMPH,PrecipitationSumIn
2013-1-1,46,40,35,27,21,15,64,48,38,29.96,29.84,16,2,16,0.00
2013-1-2,44,35,26,27,21,11,69,56,45,30.14,29.93,10,2,10,0.00
2013-1-3,43,30,20,23,16,11,69,55,45,30.16,30.08,10,1,10,0.00
2013-1-4,46,33,24,26,16,8,57,49,45,30.16,30.08,19,4,19,0.00
2013-1-5,48,37,24,27,18,8,54,47,44,30.31,30.11,13,2,13,0.00
2013-1-6,50,39,24,28,21,14,67,50,41,30.11,29.99,19,2,19,0.00
2013-1-7,45,36,23,24,18,11,63,48,41,30.40,30.11,13,3,13,0.00
2013-1-8,57,36,22,32,20,12,68,53,38,30.37,30.28,10,1,10,0.00
2013-1-9,61,42,24,40,27,13,71,56,40,30.37,30.22,16,2,16,0.00
2013-1-10,58,42,28,32,23,14,62,48,38,30.52,30.37,8,0,8,0.00
2013-1-11,48,43,34,37,29,21,75,59,43,30.40,30.05,10,2,10,0.00
2013-1-12,72,50,36,54,40,32,92,71,45,30.14,30.05,11,1,11,0.00
2013-1-13,68,56,43,60,45,39,97,70,47,30.05,29.96,13,2,13,0.00
2013-1-14,63,54,39,52,40,32,79,59,49,30.25,29.96,17,6,17,0.23
2013-1-15,39,37,35,36,33,30,94,84,75,30.28,30.08,13,4,13,0.76
2013-1-16,49,41,34,44,36,33,97,85,58,30.08,29.78,11,2,11,0.19
2013-1-17,48,41,34,36,28,23,73,59,47,30.08,29.96,13,3,13,0.06
2013-1-18,44,34,28,23,17,11,65,48,43,30.40,30.08,21,5,21,0.06
2013-1-19,57,41,28,33,22,12,53,46,40,30.34,29.96,13,4,13,0.06
2013-1-20,58,45,27,34,23,6,44,42,40,30.02,29.84,27,6,27,0.00
2013-1-21,50,34,22,26,14,2,54,44,36,30.02,29.78,31,6,31,0.00
2013-1-22,26,19,13,2,-3,-10,39,36,32,30.19,29.90,22,7,22,0.00
2013-1-23,31,21,9,8,-5,-14,51,32,29,30.22,29.99,16,4,16,0.00
2013-1-24,26,19,10,10,2,-9,65,48,39,30.43,29.96,21,6,24,0.00
2013-1-25,23,18,9,8,1,-9,53,47,40,30.43,29.96,14,3,14,0.00
2013-1-26,39,26,16,21,13,4,70,56,47,30.22,29.96,15,2,15,0.00
2013-1-27,44,32,14,21,15,5,75,50,40,30.49,30.34,11,3,11,0.00
2013-1-28,57,42,32,39,29,15,86,61,50,30.37,30.08,13,3,13,0.10
2013-1-29,75,57,38,51,42,32,92,60,41,30.11,29.93,14,2,14,0.00
2013-1-30,68,60,54,55,50,43,100,72,53,29.93,29.31,28,6,28,1.89
2013-1-31,55,38,29,55,22,12,100,52,47,29.84,29.25,31,10,31,0.06
2013-2-1,31,23,12,21,7,-3,72,50,47,30.28,29.75,31,7,31,0.02
2013-2-2,34,21,10,19,8,-5,76,57,49,30.28,29.93,17,3,17,0.02
2013-2-3,40,31,24,27,18,10,77,60,47,29.93,29.75,28,5,28,0.02
2013-2-4,38,30,19,24,13,4,66,50,47,30.02,29.84,22,4,22,0.02
2013-2-5,52,42,30,32,26,18,67,53,47,29.87,29.78,22,4,22,0.02
2013-2-6,52,39,26,31,24,13,75,55,43,30.25,29.87,13,2,13,0.00
2013-2-7,42,33,23,24,19,12,68,58,46,30.31,30.11,10,2,10,0.00
2013-2-8,46,36,32,30,24,16,82,61,45,30.11,29.75,25,5,25,0.02
2013-2-9,45,33,21,24,14,5,53,46,43,30.31,29.96,25,5,25,0.00
2013-2-10,46,31,15,24,15,4,67,51,43,30.37,30.14,15,2,15,0.01
2013-2-11,63,50,36,42,33,19,75,53,40,30.14,29.75,25,6,25,0.00
2013-2-12,62,48,38,37,26,18,44,42,39,29.93,29.81,19,5,19,0.00
2013-2-13,45,36,31,29,23,13,84,60,43,29.90,29.60,13,2,13,0.03
2013-2-14,50,37,25,33,24,13,88,62,42,29.99,29.75,11,2,11,0.00
2013-2-15,59,37,22,35,24,13,78,61,40,30.02,29.87,16,2,16,0.12
2013-2-16,37,32,24,28,18,7,84,57,46,29.96,29.81,22,4,22,0.00
2013-2-17,29,23,18,9,5,1,50,46,43,30.14,29.84,24,9,24,0.00
2013-2-18,48,30,10,26,11,-5,58,46,42,30.28,30.08,16,2,16,0.00
2013-2-19,52,40,29,33,23,12,76,51,42,30.08,29.69,26,7,26,0.02
2013-2-20,40,32,22,20,13,3,47,44,40,30.11,29.84,22,8,22,0.00
2013-2-21,42,29,15,20,10,-1,53,44,41,30.25,30.08,14,3,14,0.00
2013-2-22,36,32,27,20,15,9,64,51,43,30.28,30.11,13,3,13,0.03
2013-2-23,52,39,33,32,25,19,67,57,46,30.11,29.78,8,1,8,0.00
2013-2-24,53,41,32,42,27,14,92,59,42,30.08,29.78,20,5,20,0.00
2013-2-25,44,31,20,23,15,7,59,50,44,30.16,30.08,15,2,15,0.00
2013-2-26,38,31,22,37,24,9,97,76,58,30.14,29.60,15,3,15,0.64
2013-2-27,55,43,37,43,32,24,97,67,42,29.69,29.54,20,4,20,0.01
2013-2-28,43,38,32,25,21,18,57,50,44,29.72,29.63,18,5,18,0.00
2013-3-1,38,36,32,22,19,15,54,50,46,29.87,29.72,15,5,15,0.00
2013-3-2,36,31,28,19,15,11,56,50,46,29.87,29.78,15,4,15,0.00
2013-3-3,42,29,18,22,12,6,62,50,45,29.93,29.78,19,4,19,0.00
2013-3-4,49,30,13,27,13,1,66,49,43,30.02,29.90,15,3,15,0.00
2013-3-5,49,38,26,28,21,10,74,51,43,30.02,29.69,14,2,14,0.15
2013-3-6,38,34,30,31,26,20,100,75,53,30.02,29.60,21,6,22,0.42
2013-3-7,42,37,34,24,21,19,56,51,47,30.16,30.02,22,7,22,0.00
2013-3-8,43,36,31,24,20,16,58,51,44,30.28,30.14,25,7,25,0.00
2013-3-9,54,35,19,31,20,11,69,54,42,30.34,30.22,6,1,7,0.00
2013-3-10,63,44,24,38,26,15,72,51,36,30.25,30.14,14,2,14,0.00
2013-3-11,58,51,42,40,30,20,57,43,37,30.16,29.84,16,3,16,0.02
2013-3-12,61,51,32,52,38,19,92,61,42,29.96,29.72,19,5,19,0.68
2013-3-13,49,37,28,27,20,13,68,51,43,30.05,29.90,25,7,28,0.00
2013-3-14,48,36,26,26,17,9,48,46,43,30.14,30.02,22,7,22,0.00
2013-3-15,60,44,26,36,24,9,48,44,41,30.08,29.78,15,4,16,0.00
2013-3-16,62,48,36,46,34,21,75,60,45,29.84,29.60,16,2,16,0.23
2013-3-17,40,35,31,36,31,28,93,83,67,30.19,29.84,10,3,10,0.26
2013-3-18,35,32,30,30,28,24,91,83,70,30.19,29.84,5,0,5,0.40
2013-3-19,57,43,31,39,29,17,94,62,38,29.93,29.72,38,8,38,0.00
2013-3-20,53,41,30,27,17,7,42,38,36,29.99,29.72,27,7,27,0.00
2013-3-21,37,30,24,20,11,3,61,44,38,29.90,29.75,22,8,22,0.00
2013-3-22,50,35,21,24,13,1,43,40,37,29.96,29.84,16,4,16,0.00
2013-3-23,56,37,20,29,16,6,60,43,35,30.02,29.87,13,2,13,0.00
2013-3-24,40,32,28,23,17,11,73,54,39,29.93,29.57,10,1,10,0.17
2013-3-25,41,34,27,27,22,15,78,63,45,29.69,29.49,12,1,12,0.26
2013-3-26,43,37,32,23,19,16,58,47,38,30.02,29.69,16,4,16,0.00
2013-3-27,48,38,29,22,18,12,58,44,37,30.14,30.02,24,6,24,0.00
2013-3-28,48,39,33,23,18,13,48,41,37,30.19,30.11,24,6,24,0.00
2013-3-29,55,42,28,29,22,13,63,45,36,30.22,30.11,16,3,16,0.00
2013-3-30,60,43,25,32,22,11,61,45,35,30.19,30.05,13,2,13,0.00
2013-3-31,57,45,36,42,31,19,69,58,48,30.05,29.72,11,2,11,0.08
2013-4-1,61,46,34,39,28,16,67,49,39,29.96,29.78,33,6,33,0.00
2013-4-2,50,40,29,27,19,6,45,42,38,30.14,29.96,20,6,20,0.00
2013-4-3,53,38,20,26,16,5,52,41,36,30.31,30.14,22,5,22,0.00
2013-4-4,46,34,22,26,15,5,73,46,37,30.34,30.02,14,3,14,0.23
2013-4-5,64,46,33,39,31,23,83,58,40,30.02,29.84,19,3,19,0.08
2013-4-6,59,47,34,36,24,15,48,41,29,30.25,30.02,14,4,14,0.00
2013-4-7,69,56,42,36,26,16,40,32,27,30.16,29.96,19,5,19,0.00
2013-4-8,78,62,42,41,34,25,54,36,27,30.08,29.93,16,3,16,0.00
2013-4-9,82,69,51,44,38,30,50,32,26,30.11,29.96,19,3,19,0.00
2013-4-10,88,71,51,48,40,31,57,34,25,30.02,29.81,14,3,14,0.00
2013-4-11,85,70,52,48,41,34,54,36,25,29.90,29.72,16,3,16,0.00
2013-4-12,77,66,55,56,45,28,86,48,31,29.78,29.60,27,6,27,0.51
2013-4-13,70,56,40,38,30,20,56,37,31,29.96,29.78,22,5,22,0.00
2013-4-14,74,56,35,43,31,19,58,40,31,30.08,29.96,14,2,14,0.00
2013-4-15,62,56,50,47,40,32,76,58,41,30.22,30.05,10,1,10,0.25
2013-4-16,74,63,54,49,46,44,82,57,38,30.25,30.11,16,4,16,0.02
2013-4-17,82,68,56,58,49,46,82,55,31,30.19,30.08,11,2,11,0.03
2013-4-18,73,66,61,50,47,40,66,51,38,30.16,29.96,21,3,21,0.00
2013-4-19,74,65,51,58,47,28,74,51,41,29.96,29.60,21,6,21,0.25
2013-4-20,61,50,38,34,26,17,44,39,36,30.28,29.81,22,7,22,0.00
2013-4-21,57,45,32,31,23,14,51,41,37,30.52,30.28,14,4,14,0.00
2013-4-22,60,46,30,33,26,19,65,46,37,30.49,30.28,13,2,13,0.00
2013-4-23,68,52,39,40,32,22,60,47,37,30.31,30.05,11,3,11,0.00
2013-4-24,76,60,40,48,40,32,72,51,35,30.08,29.81,20,4,20,0.03
2013-4-25,65,53,41,37,30,22,48,40,35,30.28,30.02,16,5,16,0.00
2013-4-26,67,53,35,39,30,19,52,41,35,30.40,30.28,11,2,11,0.00
2013-4-27,72,58,40,44,35,26,62,44,35,30.34,30.22,13,2,13,0.00
2013-4-28,57,54,51,45,38,33,70,55,40,30.22,30.08,20,3,20,0.13
2013-4-29,67,58,50,46,42,37,73,56,43,30.11,29.96,12,2,12,0.00
2013-4-30,66,59,54,47,43,40,74,57,43,30.25,30.05,12,5,12,0.00
2013-5-1,72,60,52,45,40,33,75,50,34,30.34,30.22,14,4,14,0.00
2013-5-2,73,59,43,44,35,26,58,41,35,30.37,30.25,14,3,14,0.00
2013-5-3,66,54,38,41,34,28,70,50,37,30.34,30.22,17,4,17,0.00
2013-5-4,66,52,35,40,32,24,67,47,38,30.28,30.11,16,4,16,0.00
2013-5-5,65,54,36,39,32,24,64,45,35,30.16,30.08,17,4,17,0.00
2013-5-6,58,53,48,55,44,33,92,73,46,30.11,29.96,16,6,16,0.50
2013-5-7,64,57,52,56,51,42,92,80,54,29.96,29.87,44,5,44,0.89
2013-5-8,62,54,48,52,47,41,94,78,56,29.99,29.90,10,1,10,0.15
2013-5-9,77,61,45,62,48,43,98,67,40,30.02,29.93,19,2,19,0.01
2013-5-10,83,66,48,58,50,41,90,59,39,30.05,29.87,21,3,21,0.20
2013-5-11,78,66,59,60,52,43,91,63,43,29.90,29.72,18,3,18,0.00
2013-5-12,64,56,43,45,36,24,61,47,41,30.02,29.78,22,6,22,0.00
2013-5-13,61,48,35,37,29,22,69,49,42,30.14,30.02,24,4,24,0.00
2013-5-14,69,52,30,45,34,22,76,52,40,30.19,29.96,13,2,13,0.00
2013-5-15,93,70,47,63,47,35,65,45,30,29.99,29.75,23,4,23,0.00
2013-5-16,86,74,63,52,46,38,55,38,31,29.99,29.84,22,3,22,0.00
2013-5-17,82,68,53,58,48,43,81,52,32,30.11,29.96,12,2,12,0.07
2013-5-18,73,65,62,59,53,48,86,66,45,30.16,30.11,13,2,13,0.03
2013-5-19,68,64,60,57,54,49,82,69,57,30.16,30.08,10,2,10,0.01
2013-5-20,82,70,62,66,57,50,92,65,43,30.11,29.99,16,2,16,0.01
2013-5-21,88,73,57,64,57,54,92,62,39,30.02,29.90,12,2,12,0.00
2013-5-22,90,74,60,64,57,49,87,58,35,29.96,29.84,26,3,26,0.10
2013-5-23,82,70,61,62,57,47,94,67,40,29.93,29.75,15,2,15,0.18
2013-5-24,63,57,46,57,40,26,92,56,40,30.16,29.81,27,8,27,0.01
2013-5-25,68,53,36,42,32,21,59,45,38,30.22,30.11,22,5,22,0.00
2013-5-26,75,58,39,48,37,28,71,47,36,30.22,30.11,19,3,19,0.00
2013-5-27,66,56,37,43,37,26,73,51,41,30.28,30.16,7,1,7,0.00
2013-5-28,88,69,51,58,50,40,81,53,36,30.19,30.05,15,2,15,0.00
2013-5-29,90,77,61,60,54,49,70,47,35,30.16,30.08,16,3,16,0.00
2013-5-30,93,78,61,61,55,48,73,47,35,30.22,30.14,15,2,15,0.00
2013-5-31,89,75,56,60,54,49,80,50,36,30.16,30.05,19,2,19,0.00
2013-6-1,90,78,64,60,55,50,68,47,35,30.08,29.96,16,3,16,0.00
2013-6-2,84,75,68,58,53,49,62,48,40,29.96,29.84,16,4,16,0.00
2013-6-3,84,72,64,59,53,46,71,51,37,29.99,29.84,16,2,16,0.00
2013-6-4,77,66,53,50,44,38,69,46,38,30.14,29.99,16,3,16,0.00
2013-6-5,80,69,57,53,48,41,61,47,38,30.16,30.02,14,3,14,0.00
2013-6-6,68,63,60,62,53,44,96,73,47,30.05,29.84,11,2,11,1.98
2013-6-7,69,66,63,65,61,55,99,85,67,29.84,29.66,14,3,14,0.24
2013-6-8,82,68,57,60,55,51,91,64,39,30.11,29.81,13,2,13,0.06
2013-6-9,80,69,59,61,56,52,89,65,46,30.19,30.08,10,2,10,0.13
2013-6-10,82,69,64,69,64,54,99,83,47,30.11,29.81,18,2,18,1.25
2013-6-11,82,72,62,63,56,50,95,61,41,29.93,29.84,19,4,19,0.00
2013-6-12,91,77,61,64,58,50,81,55,40,29.93,29.84,16,3,16,0.00
2013-6-13,80,71,64,66,57,46,89,62,47,29.87,29.57,20,4,20,0.04
2013-6-14,77,68,58,52,47,42,61,48,40,30.05,29.72,18,5,18,0.00
2013-6-15,84,69,50,56,50,42,78,53,39,30.11,30.02,11,2,11,0.00
2013-6-16,85,71,57,60,55,47,80,57,41,30.05,29.93,14,3,14,0.01
2013-6-17,87,74,65,62,58,53,76,59,41,29.99,29.93,14,3,14,0.09
2013-6-18,73,67,61,66,58,52,91,74,50,29.96,29.84,16,1,16,0.25
2013-6-19,77,67,57,62,55,52,93,67,47,30.14,29.93,13,2,13,0.00
2013-6-20,79,71,62,64,56,53,89,62,45,30.25,30.14,18,3,18,0.00
2013-6-21,84,73,58,60,53,47,73,51,41,30.28,30.19,11,2,11,0.00
2013-6-22,87,73,58,61,56,50,87,57,38,30.25,30.14,13,2,13,0.00
2013-6-23,87,75,65,66,60,53,91,61,41,30.19,30.11,13,3,13,0.26
2013-6-24,91,74,63,69,60,52,93,65,40,30.19,30.08,21,2,21,0.82
2013-6-25,90,76,63,68,62,58,94,64,43,30.11,29.96,13,2,13,0.00
2013-6-26,89,75,68,68,63,53,89,68,43,29.96,29.84,16,6,16,0.57
2013-6-27,84,74,65,69,61,56,94,66,45,29.90,29.69,10,10,10,0.00
2013-6-28,90,78,66,64,58,50,72,51,37,29.72,29.52,10,10,10,0.00
2013-6-29,86,74,59,63,56,51,80,54,38,29.73,29.57,10,8,10,0.02
2013-6-30,86,74,65,72,62,56,95,69,44,29.88,29.73,15,3,15,0.23
2013-7-1,83,74,68,66,60,58,89,64,45,29.96,29.88,16,2,16,0.03
2013-7-2,79,72,69,68,63,59,92,73,55,30.17,29.96,13,2,13,0.14
2013-7-3,80,73,69,69,64,61,92,74,53,30.26,30.14,8,2,10,0.11
2013-7-4,85,76,68,71,64,59,95,68,46,30.26,30.17,16,3,16,0.01
2013-7-5,88,78,68,68,62,59,91,61,43,30.26,30.17,16,4,16,0.01
2013-7-6,89,79,67,72,61,57,91,57,40,30.23,30.11,14,3,14,0.00
2013-7-7,88,75,67,69,61,58,86,64,44,30.17,30.02,30,2,30,0.24
2013-7-8,86,74,64,68,60,56,91,63,43,30.17,30.08,14,2,14,0.01
2013-7-9,84,75,67,68,62,58,89,67,46,30.14,30.05,10,1,10,0.00
2013-7-10,88,75,70,70,64,59,89,70,45,30.08,29.93,10,2,10,0.00
2013-7-11,84,75,65,72,63,57,94,68,44,29.96,29.91,15,3,15,1.36
2013-7-12,73,67,64,66,59,53,100,77,51,30.08,29.96,18,5,18,0.98
2013-7-13,83,73,63,69,62,57,96,71,46,30.26,30.08,10,1,10,0.02
2013-7-14,86,76,66,71,62,58,95,64,43,30.35,30.26,13,2,13,0.00
2013-7-15,91,79,65,69,63,61,95,63,40,30.35,30.26,10,1,10,0.00
2013-7-16,91,80,67,72,64,59,94,62,42,30.32,30.23,19,2,19,0.00
2013-7-17,90,80,69,74,65,62,93,63,42,30.29,30.17,13,2,13,0.00
2013-7-18,94,82,70,75,67,63,95,65,41,30.20,30.08,8,1,8,0.00
2013-7-19,94,78,70,76,66,57,96,68,42,30.08,29.96,19,2,19,0.01
2013-7-20,93,78,69,69,63,57,94,63,39,29.96,29.88,13,3,13,0.01
2013-7-21,89,74,65,69,62,57,91,67,43,30.02,29.93,22,2,22,0.64
2013-7-22,88,76,68,72,65,60,99,71,44,29.99,29.82,16,2,16,0.01
2013-7-23,89,77,68,72,62,57,97,64,40,29.82,29.73,13,2,13,0.00
2013-7-24,84,73,66,63,57,48,79,57,44,29.96,29.76,16,4,16,0.00
2013-7-25,78,69,60,55,49,45,65,50,43,30.08,29.93,14,4,14,0.00
2013-7-26,83,70,54,61,54,48,91,59,39,30.14,30.02,12,2,12,0.00
2013-7-27,74,69,62,66,59,55,92,72,58,30.05,29.93,12,2,12,0.31
2013-7-28,85,74,66,65,58,52,89,61,41,30.02,29.91,13,2,13,0.00
2013-7-29,80,69,54,55,51,48,84,54,40,30.20,30.02,10,2,10,0.00
2013-7-30,82,69,53,57,53,49,88,58,39,30.26,30.17,10,2,10,0.00
2013-7-31,82,68,62,64,59,55,91,74,45,30.17,30.02,16,1,16,0.23
2013-8-1,83,72,64,67,61,57,98,72,45,30.02,29.88,14,2,14,0.12
2013-8-2,85,73,59,64,56,51,90,58,39,30.02,29.93,13,2,13,0.00
2013-8-3,83,69,62,59,55,51,83,63,44,30.02,29.96,8,1,8,0.01
2013-8-4,82,70,58,63,53,45,90,58,39,30.08,29.96,19,3,19,0.00
2013-8-5,79,67,52,54,50,45,83,57,40,30.14,30.02,11,2,12,0.00
2013-8-6,82,71,64,64,57,53,90,63,45,30.05,29.99,12,2,12,0.02
2013-8-7,83,74,67,67,62,58,93,67,47,30.08,30.02,16,3,16,0.00
2013-8-8,83,75,69,67,63,60,89,69,48,30.05,29.99,12,2,12,0.00
2013-8-9,91,80,71,69,63,57,91,60,42,30.02,29.93,19,4,19,0.00
2013-8-10,85,75,68,72,63,59,93,69,46,30.11,30.02,8,1,8,0.25
2013-8-11,85,74,68,69,65,59,95,75,46,30.14,30.02,10,2,10,0.29
2013-8-12,88,75,66,74,64,58,100,73,43,30.08,29.96,14,1,14,0.13
2013-8-13,85,74,69,69,61,54,99,67,44,29.96,29.82,11,2,11,0.08
2013-8-14,74,66,54,55,46,41,63,49,41,30.14,29.88,16,5,16,0.00
2013-8-15,76,62,47,51,46,41,81,57,40,30.20,30.11,10,2,10,0.00
2013-8-16,79,64,48,56,48,44,88,60,40,30.20,30.14,11,2,11,0.00
2013-8-17,78,65,50,57,50,46,89,62,43,30.26,30.20,13,3,13,0.00
2013-8-18,70,64,59,60,56,52,96,77,58,30.26,30.20,11,3,11,0.60
2013-8-19,80,70,63,66,61,58,97,75,48,30.20,30.08,8,1,8,0.03
2013-8-20,85,74,64,68,62,58,100,69,43,30.20,30.11,10,2,10,0.00
2013-8-21,87,72,64,68,62,54,97,76,44,30.23,30.11,12,2,12,0.78
2013-8-22,85,72,62,68,61,56,100,70,44,30.14,30.02,18,2,18,0.14
2013-8-23,74,67,61,70,61,52,100,83,58,30.14,29.99,15,2,15,0.64
2013-8-24,80,65,52,65,54,49,96,70,42,30.35,30.17,11,2,11,0.18
2013-8-25,81,66,52,60,53,49,94,64,39,30.40,30.29,10,2,10,0.18
2013-8-26,84,70,54,61,55,51,93,64,41,30.32,30.08,10,1,10,0.18
2013-8-27,89,74,62,64,60,55,90,65,43,30.08,29.96,13,2,13,0.18
2013-8-28,78,72,68,69,64,59,95,77,63,30.02,29.84,13,2,13,0.37
2013-8-29,82,74,66,71,63,57,97,71,45,30.05,29.87,13,3,13,0.18
2013-8-30,86,73,62,72,61,59,99,70,44,30.08,29.93,14,2,14,0.18
2013-8-31,89,74,66,70,62,57,93,69,43,29.96,29.87,11,2,11,0.03
2013-9-1,87,72,63,72,64,57,100,80,44,29.90,29.81,11,1,11,0.03
2013-9-2,88,76,66,76,65,60,100,72,43,29.87,29.78,11,2,11,0.03
2013-9-3,86,74,61,65,57,48,85,58,38,30.02,29.82,13,2,13,0.00
2013-9-4,79,66,53,57,52,48,86,62,43,30.11,30.02,11,1,11,0.00
2013-9-5,86,67,49,60,52,46,92,62,38,30.14,30.05,16,2,16,0.00
2013-9-6,75,64,51,52,48,43,82,59,43,30.26,30.14,14,2,14,0.00
2013-9-7,82,65,50,57,52,47,94,65,39,30.17,29.96,10,1,10,0.00
2013-9-8,90,73,58,64,57,50,90,62,40,30.05,29.91,13,2,13,0.00
2013-9-9,80,71,65,60,55,49,72,59,46,30.20,30.05,14,3,14,0.00
2013-9-10,91,76,65,66,62,57,91,64,42,30.20,30.14,10,2,10,0.00
2013-9-11,92,77,66,72,63,59,95,66,42,30.20,30.05,13,2,13,0.00
2013-9-12,92,74,64,71,62,55,95,68,39,30.08,29.82,21,2,21,0.18
2013-9-13,75,66,59,61,50,41,93,58,41,29.96,29.79,22,5,22,0.00
2013-9-14,68,57,47,46,40,35,73,54,45,30.17,29.96,13,3,13,0.00
2013-9-15,78,60,41,53,46,37,90,63,43,30.23,30.08,15,2,15,0.00
2013-9-16,68,58,49,61,49,42,98,72,51,30.26,30.08,14,2,16,0.01
2013-9-17,68,57,48,53,45,39,96,66,45,30.38,30.26,13,2,13,0.00
2013-9-18,73,55,38,52,43,34,90,65,44,30.32,30.17,11,2,11,0.00
2013-9-19,80,64,53,57,50,43,80,61,42,30.20,30.08,14,2,14,0.00
2013-9-20,79,67,55,60,56,51,95,70,46,30.08,29.96,14,3,14,0.00
2013-9-21,70,64,59,64,59,55,97,82,60,29.96,29.70,18,3,18,0.60
2013-9-22,71,61,51,63,50,38,100,71,44,29.96,29.79,14,3,14,0.01
2013-9-23,67,55,43,50,41,37,87,61,45,30.11,29.96,13,2,13,0.00
2013-9-24,73,59,50,51,46,42,82,64,46,30.11,29.96,10,1,10,0.00
2013-9-25,75,60,48,59,48,45,95,68,40,29.99,29.88,10,1,10,0.00
2013-9-26,76,62,49,60,48,40,93,64,40,30.08,29.93,11,2,11,0.01
2013-9-27,75,59,43,54,46,40,92,65,43,30.23,30.08,13,2,13,0.00
2013-9-28,67,59,49,57,47,44,92,66,48,30.29,30.20,11,2,11,0.00
2013-9-29,74,60,50,55,46,40,88,62,41,30.23,30.05,10,2,10,0.00
2013-9-30,78,61,45,55,47,41,94,64,40,30.08,29.99,8,2,8,0.00
2013-10-1,82,66,55,58,51,45,89,62,39,30.11,30.02,11,2,11,0.00
2013-10-2,83,64,48,60,50,44,93,65,41,30.14,30.05,7,0,10,0.00
2013-10-3,84,65,52,61,53,48,94,68,41,30.17,30.05,13,1,13,0.00
2013-10-4,86,67,52,64,55,51,97,69,41,30.14,30.05,10,1,10,0.00
2013-10-5,87,70,56,67,57,53,97,68,41,30.14,30.02,11,1,11,0.00
2013-10-6,86,70,55,64,56,53,96,64,41,30.05,29.90,19,3,19,0.00
2013-10-7,72,64,48,66,53,36,100,70,44,30.08,29.78,16,4,16,1.62
2013-10-8,66,53,42,47,40,35,90,62,43,30.26,30.08,16,3,16,0.00
2013-10-9,59,52,46,45,40,38,82,65,50,30.32,30.23,16,4,16,0.08
2013-10-10,58,53,49,53,49,44,96,85,72,30.23,30.02,14,5,14,0.36
2013-10-11,61,57,54,55,50,47,90,77,61,30.02,29.96,14,5,14,0.00
2013-10-12,64,61,58,60,56,52,100,86,66,30.17,29.99,16,6,16,0.00
2013-10-13,61,58,56,57,54,50,99,88,69,30.29,30.17,14,5,14,0.17
2013-10-14,66,59,53,58,53,45,100,82,58,30.32,30.23,10,2,10,0.04
2013-10-15,68,58,50,58,49,45,98,75,48,30.23,30.08,7,0,7,0.00
2013-10-16,70,59,47,60,50,45,97,75,49,30.11,29.93,11,1,11,0.00
2013-10-17,70,63,56,58,53,42,86,70,57,29.93,29.75,13,2,13,0.00
2013-10-18,66,54,42,43,37,30,74,53,43,30.02,29.87,16,2,16,0.00
2013-10-19,63,51,39,49,42,34,94,72,51,29.99,29.78,11,2,11,0.00
2013-10-20,62,49,34,40,32,23,74,52,41,30.08,29.90,15,3,15,0.00
2013-10-21,68,49,31,45,36,27,89,64,42,30.14,29.93,15,2,15,0.00
2013-10-22,68,53,40,49,39,31,90,61,42,29.93,29.81,16,3,16,0.00
2013-10-23,59,47,39,38,31,26,66,54,44,29.93,29.67,32,4,32,0.00
2013-10-24,50,42,33,30,25,18,61,51,44,30.14,29.93,16,5,16,0.00
2013-10-25,52,36,23,30,22,15,75,56,43,30.32,30.14,16,2,16,0.00
2013-10-26,56,40,21,33,25,14,78,56,42,30.29,29.93,14,3,16,0.00
2013-10-27,63,47,34,40,30,22,66,52,41,30.11,29.96,10,2,14,0.00
2013-10-28,64,45,29,42,32,23,81,62,43,30.26,30.11,11,1,11,0.00
2013-10-29,65,49,34,44,36,28,84,64,45,30.35,30.26,8,1,8,0.00
2013-10-30,69,57,48,51,46,38,81,66,49,30.29,30.11,8,1,8,0.06
2013-10-31,70,60,50,60,49,43,96,70,48,30.17,29.75,19,3,19,0.00
2013-11-1,74,64,48,53,48,37,73,56,41,29.75,29.61,24,5,24,0.01
2013-11-2,68,51,37,48,35,21,88,57,30,29.93,29.70,19,4,19,0.00
2013-11-3,56,44,29,30,21,12,65,42,30,30.37,29.93,18,4,18,0.00
2013-11-4,47,37,27,21,16,11,57,43,33,30.55,30.37,10,2,10,0.00
2013-11-5,55,43,29,35,25,17,64,50,33,30.55,30.40,10,1,10,0.00
2013-11-6,69,56,48,44,39,34,68,53,40,30.40,30.05,19,3,19,0.00
2013-11-7,61,50,39,48,35,17,82,56,39,30.11,29.90,24,5,24,0.02
2013-11-8,51,40,27,27,19,12,58,43,39,30.29,30.11,21,4,21,0.00
2013-11-9,58,40,22,32,22,12,70,49,37,30.29,30.05,17,2,17,0.00
2013-11-10,65,45,29,37,25,13,69,45,35,30.23,29.99,18,5,20,0.00
2013-11-11,62,44,26,35,24,13,64,46,36,30.29,29.99,13,3,13,0.00
2013-11-12,51,37,24,28,17,6,49,43,39,30.37,29.96,23,7,23,0.00
2013-11-13,43,31,22,20,12,4,52,44,40,30.46,30.35,19,4,19,0.00
2013-11-14,60,38,18,34,18,4,56,44,37,30.35,30.20,13,2,13,0.00
2013-11-15,64,44,22,37,24,9,61,46,35,30.26,30.14,13,2,13,0.03
2013-11-16,58,48,39,51,41,32,90,76,60,30.26,30.20,11,1,11,0.00
2013-11-17,64,57,52,56,48,44,88,72,50,30.20,29.75,13,4,13,0.06
2013-11-18,66,56,44,53,33,22,73,43,35,29.96,29.72,25,7,25,0.01
2013-11-19,47,40,30,24,19,13,51,44,39,30.32,29.96,19,6,19,0.00
2013-11-20,47,33,25,24,17,11,68,51,39,30.46,30.32,11,2,11,0.00
2013-11-21,50,41,26,33,26,14,62,56,47,30.49,30.35,10,2,10,0.00
2013-11-22,67,56,46,45,40,32,65,54,43,30.35,30.02,14,3,14,0.00
2013-11-23,57,44,27,37,25,11,61,46,38,30.20,30.02,24,8,24,0.00
2013-11-24,29,23,13,12,4,-3,51,43,40,30.46,30.20,22,7,22,0.00
2013-11-25,39,26,11,17,7,-4,58,46,40,30.46,30.26,12,3,12,0.00
2013-11-26,39,35,32,36,25,13,97,69,42,30.29,29.63,16,3,16,2.80
2013-11-27,38,34,24,36,23,7,95,67,46,30.04,29.57,24,6,24,0.02
2013-11-28,37,26,16,16,9,3,59,49,41,30.48,30.04,14,2,14,0.00
2013-11-29,43,29,18,22,14,9,69,54,41,30.71,30.48,10,1,10,0.00
2013-11-30,39,27,15,20,13,7,72,56,43,30.71,30.39,13,2,13,0.00
2013-12-1,56,37,20,30,20,8,69,51,37,30.39,30.06,10,2,10,0.00
2013-12-2,54,44,38,33,28,24,63,52,40,30.06,29.92,8,0,8,0.00
2013-12-3,58,43,35,36,29,24,75,58,42,30.06,29.92,8,1,8,0.00
2013-12-4,64,49,36,41,36,26,73,61,44,30.12,30.03,10,1,10,0.00
2013-12-5,69,59,47,52,46,40,86,63,44,30.12,30.03,14,3,14,0.00
2013-12-6,64,50,38,59,45,35,94,84,60,30.21,29.98,20,5,20,1.03
2013-12-7,40,36,28,36,26,16,93,69,57,30.57,30.18,16,6,16,0.03
2013-12-8,32,28,26,29,21,15,89,76,59,30.57,30.30,14,3,14,0.73
2013-12-9,54,38,32,39,32,24,100,80,53,30.33,30.06,10,1,10,0.28
2013-12-10,40,33,22,34,22,3,85,65,42,30.27,30.03,16,2,16,0.37
2013-12-11,43,31,21,19,11,3,51,43,37,30.42,30.27,14,3,14,0.00
2013-12-12,36,29,23,14,8,2,43,40,37,30.45,30.30,16,6,16,0.00
2013-12-13,46,33,22,21,11,2,49,40,37,30.36,30.27,16,4,16,0.00
2013-12-14,34,32,31,30,24,14,87,70,49,30.33,29.83,7,1,7,0.26
2013-12-15,45,36,31,36,23,13,95,61,39,30.01,29.74,20,4,20,0.00
2013-12-16,42,36,32,21,18,16,58,49,43,30.18,30.01,8,2,11,0.00
2013-12-17,52,37,24,30,22,15,71,54,40,30.15,29.94,20,4,20,0.00
2013-12-18,45,35,28,20,14,9,47,42,37,30.24,30.03,21,5,21,0.00
2013-12-19,66,44,26,35,21,7,49,40,32,30.24,30.12,19,2,19,0.00
2013-12-20,64,47,30,34,25,17,62,44,33,30.15,30.06,13,2,13,0.00
2013-12-21,69,60,47,48,38,24,53,44,37,30.09,29.94,19,4,19,0.00
2013-12-22,69,62,58,56,48,44,85,61,50,30.09,29.91,19,5,19,0.35
2013-12-23,61,51,34,55,39,16,94,67,44,30.27,30.00,16,4,16,0.90
2013-12-24,40,29,20,22,12,0,66,49,38,30.47,30.24,25,5,25,0.00
2013-12-25,33,23,13,12,4,-3,59,44,40,30.53,30.32,12,2,12,0.00
2013-12-26,48,32,21,22,11,2,52,42,36,30.38,30.24,19,3,19,0.00
2013-12-27,52,32,18,26,14,7,65,48,35,30.44,30.32,13,2,13,0.00
2013-12-28,57,37,19,29,18,9,67,48,34,30.38,30.18,13,2,13,0.00
2013-12-29,52,42,37,48,33,20,99,71,46,30.18,29.67,16,3,16,1.46
2013-12-30,43,38,28,32,24,16,73,58,48,30.18,29.88,21,3,21,0.41
2013-12-31,44,34,27,23,18,9,70,52,43,30.32,30.15,30,4,30,0.00
2014-1-1,53,36,25,30,18,10,63,49,41,30.38,30.12,16,2,16,0.00
2014-1-2,36,31,26,26,21,14,86,69,51,30.12,29.67,19,2,19,0.11